Terminal Aerodrome Forecast
Issued by NWS

Home | Current Version | Previous Version | Text Only | Print | Product List | Glossary On
Versions: 1 2 3 4 5 6 7 8 9 10 11 12 13
248
FTUS42 TJSJ 251740
TAFJBQ
TAF
TJBQ 251740Z 2518/2618 08010KT P6SM VCTS SCT025CB BKN050
      TEMPO 2518/2522 VRB15G25KT 3SM TSRA BR BKN020CB
     FM260200 13005KT P6SM VCSH SCT020 BKN050
     FM261500 09010KT P6SM SCT025 BKN050
      AMD NOT SKED 2602/2611=

USA.gov is the U.S. government's official web portal to all federal, state and local government web resources and services.